sensor_id;sensor_type;location;lat;lon;timestamp;pressure;altitude;pressure_sealevel;temperature;humidity
13241;BME280;6687;47.790;7.322;2023-05-22T05:24:35;98641.44;;;20.77;59.36
13241;BME280;6687;47.790;7.322;2023-05-22T05:27:02;98635.59;;;20.90;59.91
13241;BME280;6687;47.790;7.322;2023-05-22T05:29:29;98639.47;;;21.01;58.57
13241;BME280;6687;47.790;7.322;2023-05-22T05:31:56;98638.88;;;21.14;58.10
13241;BME280;6687;47.790;7.322;2023-05-22T05:34:22;98638.59;;;21.20;59.22
13241;BME280;6687;47.790;7.322;2023-05-22T05:36:49;98629.47;;;21.46;57.40
13241;BME280;6687;47.790;7.322;2023-05-22T05:39:16;98640.03;;;21.46;59.75
13241;BME280;6687;47.790;7.322;2023-05-22T05:41:44;98634.72;;;21.65;57.06
13241;BME280;6687;47.790;7.322;2023-05-22T05:44:11;98637.00;;;21.73;56.23
13241;BME280;6687;47.790;7.322;2023-05-22T05:46:38;98636.53;;;21.82;56.89
13241;BME280;6687;47.790;7.322;2023-05-22T05:49:06;98637.47;;;21.98;55.80
13241;BME280;6687;47.790;7.322;2023-05-22T05:51:34;98635.47;;;22.03;55.38
13241;BME280;6687;47.790;7.322;2023-05-22T05:54:01;98628.09;;;22.10;55.46
13241;BME280;6687;47.790;7.322;2023-05-22T05:56:27;98638.44;;;22.15;55.32
13241;BME280;6687;47.790;7.322;2023-05-22T05:58:55;98636.81;;;22.30;54.62
13241;BME280;6687;47.790;7.322;2023-05-22T06:01:23;98625.84;;;22.55;54.72
13241;BME280;6687;47.790;7.322;2023-05-22T06:03:50;98632.22;;;22.33;54.93
13241;BME280;6687;47.790;7.322;2023-05-22T06:06:17;98628.78;;;22.66;54.92
13241;BME280;6687;47.790;7.322;2023-05-22T06:08:44;98638.84;;;22.75;54.92
13241;BME280;6687;47.790;7.322;2023-05-22T06:11:10;98638.28;;;22.53;57.48
13241;BME280;6687;47.790;7.322;2023-05-22T06:13:37;98647.91;;;22.87;55.74
13241;BME280;6687;47.790;7.322;2023-05-22T06:16:06;98639.88;;;22.89;55.65
13241;BME280;6687;47.790;7.322;2023-05-22T06:18:32;98641.56;;;23.07;54.01
13241;BME280;6687;47.790;7.322;2023-05-22T06:20:59;98646.38;;;22.99;54.78
13241;BME280;6687;47.790;7.322;2023-05-22T06:23:26;98647.81;;;23.22;54.13
13241;BME280;6687;47.790;7.322;2023-05-22T06:25:52;98645.69;;;23.29;53.71
13241;BME280;6687;47.790;7.322;2023-05-22T06:28:19;98654.66;;;23.42;52.24
13241;BME280;6687;47.790;7.322;2023-05-22T06:30:46;98654.44;;;23.45;52.17
13241;BME280;6687;47.790;7.322;2023-05-22T06:33:14;98648.47;;;23.57;52.61
13241;BME280;6687;47.790;7.322;2023-05-22T06:35:41;98653.75;;;23.73;51.65
13241;BME280;6687;47.790;7.322;2023-05-22T06:38:08;98646.59;;;23.59;51.98
13241;BME280;6687;47.790;7.322;2023-05-22T06:40:34;98650.75;;;23.95;51.38
13241;BME280;6687;47.790;7.322;2023-05-22T06:43:01;98647.94;;;23.98;52.34
13241;BME280;6687;47.790;7.322;2023-05-22T06:45:28;98640.22;;;24.10;50.68
13241;BME280;6687;47.790;7.322;2023-05-22T06:47:55;98649.31;;;24.20;50.00
13241;BME280;6687;47.790;7.322;2023-05-22T06:50:23;98647.28;;;24.39;51.96
13241;BME280;6687;47.790;7.322;2023-05-22T06:52:49;98645.03;;;24.48;49.64
13241;BME280;6687;47.790;7.322;2023-05-22T06:55:16;98651.50;;;24.58;50.08
13241;BME280;6687;47.790;7.322;2023-05-22T06:57:43;98644.25;;;24.31;49.86
13241;BME280;6687;47.790;7.322;2023-05-22T07:00:11;98645.94;;;24.32;50.43
13241;BME280;6687;47.790;7.322;2023-05-22T07:02:38;98649.25;;;24.66;50.38
13241;BME280;6687;47.790;7.322;2023-05-22T07:05:06;98652.09;;;24.77;50.91
13241;BME280;6687;47.790;7.322;2023-05-22T07:07:34;98647.81;;;25.04;49.06
13241;BME280;6687;47.790;7.322;2023-05-22T07:10:01;98650.56;;;25.02;49.95
13241;BME280;6687;47.790;7.322;2023-05-22T07:12:28;98654.91;;;25.32;48.48
13241;BME280;6687;47.790;7.322;2023-05-22T07:14:55;98654.25;;;25.14;48.70
13241;BME280;6687;47.790;7.322;2023-05-22T07:17:24;98652.47;;;25.29;48.62
13241;BME280;6687;47.790;7.322;2023-05-22T07:19:51;98660.41;;;25.43;47.87
13241;BME280;6687;47.790;7.322;2023-05-22T07:22:17;98661.66;;;25.65;47.94
13241;BME280;6687;47.790;7.322;2023-05-22T07:24:46;98659.59;;;25.55;48.67
13241;BME280;6687;47.790;7.322;2023-05-22T07:27:13;98662.41;;;25.67;48.30
13241;BME280;6687;47.790;7.322;2023-05-22T07:29:40;98662.50;;;25.92;47.10
13241;BME280;6687;47.790;7.322;2023-05-22T07:32:07;98661.16;;;25.99;47.29
13241;BME280;6687;47.790;7.322;2023-05-22T07:34:34;98668.84;;;25.90;47.03
13241;BME280;6687;47.790;7.322;2023-05-22T07:37:07;98668.28;;;25.99;47.75
13241;BME280;6687;47.790;7.322;2023-05-22T07:39:35;98669.28;;;26.11;46.78
13241;BME280;6687;47.790;7.322;2023-05-22T07:42:03;98667.72;;;26.21;47.25
13241;BME280;6687;47.790;7.322;2023-05-22T07:44:30;98674.00;;;26.46;46.14
13241;BME280;6687;47.790;7.322;2023-05-22T07:46:57;98660.09;;;26.55;45.82
13241;BME280;6687;47.790;7.322;2023-05-22T07:49:24;98666.03;;;26.46;47.16
13241;BME280;6687;47.790;7.322;2023-05-22T07:51:51;98669.25;;;26.51;45.68
13241;BME280;6687;47.790;7.322;2023-05-22T07:54:18;98669.00;;;26.54;46.44
13241;BME280;6687;47.790;7.322;2023-05-22T07:56:45;98670.97;;;26.77;46.66
13241;BME280;6687;47.790;7.322;2023-05-22T07:59:14;98668.09;;;27.06;46.00
13241;BME280;6687;47.790;7.322;2023-05-22T08:01:43;98661.56;;;27.23;45.55
13241;BME280;6687;47.790;7.322;2023-05-22T08:04:10;98666.03;;;27.35;45.83
13241;BME280;6687;47.790;7.322;2023-05-22T08:06:37;98668.13;;;27.43;45.19
13241;BME280;6687;47.790;7.322;2023-05-22T08:09:04;98675.19;;;27.31;45.33
13241;BME280;6687;47.790;7.322;2023-05-22T08:11:31;98664.91;;;27.51;45.02
13241;BME280;6687;47.790;7.322;2023-05-22T08:13:58;98666.69;;;27.63;45.05
13241;BME280;6687;47.790;7.322;2023-05-22T08:16:26;98670.78;;;27.80;44.79
13241;BME280;6687;47.790;7.322;2023-05-22T08:18:53;98666.03;;;27.96;45.07
13241;BME280;6687;47.790;7.322;2023-05-22T08:21:19;98660.13;;;27.80;44.74
13241;BME280;6687;47.790;7.322;2023-05-22T08:23:46;98665.13;;;28.09;44.57
13241;BME280;6687;47.790;7.322;2023-05-22T08:26:13;98673.63;;;28.14;44.46
13241;BME280;6687;47.790;7.322;2023-05-22T08:28:40;98664.19;;;28.21;44.25
13241;BME280;6687;47.790;7.322;2023-05-22T08:31:08;98661.19;;;28.26;44.14
13241;BME280;6687;47.790;7.322;2023-05-22T08:33:37;98656.75;;;28.49;43.79
13241;BME280;6687;47.790;7.322;2023-05-22T08:36:04;98657.44;;;28.28;43.85
13241;BME280;6687;47.790;7.322;2023-05-22T08:38:31;98666.97;;;28.55;43.61
13241;BME280;6687;47.790;7.322;2023-05-22T08:40:58;98661.88;;;28.52;42.95
13241;BME280;6687;47.790;7.322;2023-05-22T08:43:25;98664.47;;;28.76;42.59
13241;BME280;6687;47.790;7.322;2023-05-22T08:45:57;98661.94;;;28.86;43.51
13241;BME280;6687;47.790;7.322;2023-05-22T08:48:28;98663.97;;;29.05;42.97
13241;BME280;6687;47.790;7.322;2023-05-22T08:50:57;98658.78;;;29.14;43.31
13241;BME280;6687;47.790;7.322;2023-05-22T08:53:27;98661.72;;;29.23;42.55
13241;BME280;6687;47.790;7.322;2023-05-22T08:55:54;98665.69;;;29.06;42.59
13241;BME280;6687;47.790;7.322;2023-05-22T08:58:22;98666.31;;;29.09;42.81
13241;BME280;6687;47.790;7.322;2023-05-22T09:00:50;98659.84;;;29.34;42.10
13241;BME280;6687;47.790;7.322;2023-05-22T09:03:18;98659.66;;;29.70;43.35
13241;BME280;6687;47.790;7.322;2023-05-22T09:05:46;98657.28;;;29.55;43.18
13241;BME280;6687;47.790;7.322;2023-05-22T09:08:15;98656.31;;;29.57;42.78
13241;BME280;6687;47.790;7.322;2023-05-22T09:10:42;98653.91;;;29.53;42.80
13241;BME280;6687;47.790;7.322;2023-05-22T09:13:09;98651.31;;;30.07;42.39
13241;BME280;6687;47.790;7.322;2023-05-22T09:15:36;98649.31;;;30.20;41.65
13241;BME280;6687;47.790;7.322;2023-05-22T09:18:04;98644.22;;;30.17;41.88
13241;BME280;6687;47.790;7.322;2023-05-22T09:20:33;98643.53;;;30.04;39.72
13241;BME280;6687;47.790;7.322;2023-05-22T09:23:00;98649.16;;;30.54;41.18
13241;BME280;6687;47.790;7.322;2023-05-22T09:25:29;98652.81;;;30.21;41.20
13241;BME280;6687;47.790;7.322;2023-05-22T09:27:56;98643.81;;;30.54;38.51
13241;BME280;6687;47.790;7.322;2023-05-22T09:30:23;98648.63;;;30.60;41.93
13241;BME280;6687;47.790;7.322;2023-05-22T09:32:50;98644.69;;;30.64;41.31
13241;BME280;6687;47.790;7.322;2023-05-22T09:35:17;98644.06;;;31.03;40.52
13241;BME280;6687;47.790;7.322;2023-05-22T09:37:44;98648.03;;;31.08;40.64
13241;BME280;6687;47.790;7.322;2023-05-22T09:40:11;98638.13;;;30.99;41.36
13241;BME280;6687;47.790;7.322;2023-05-22T09:42:42;98647.63;;;31.23;38.81
13241;BME280;6687;47.790;7.322;2023-05-22T09:45:10;98635.75;;;31.46;37.82
13241;BME280;6687;47.790;7.322;2023-05-22T09:47:37;98640.41;;;31.13;41.07
13241;BME280;6687;47.790;7.322;2023-05-22T09:50:06;98633.94;;;31.66;39.00
13241;BME280;6687;47.790;7.322;2023-05-22T09:52:36;98635.09;;;31.64;36.70
13241;BME280;6687;47.790;7.322;2023-05-22T09:55:04;98632.72;;;32.19;37.99
13241;BME280;6687;47.790;7.322;2023-05-22T09:57:40;98635.50;;;31.98;36.03
13241;BME280;6687;47.790;7.322;2023-05-22T10:00:08;98633.25;;;32.13;36.97
13241;BME280;6687;47.790;7.322;2023-05-22T10:02:43;98630.16;;;32.37;36.03
13241;BME280;6687;47.790;7.322;2023-05-22T10:05:11;98627.81;;;32.72;35.10
13241;BME280;6687;47.790;7.322;2023-05-22T10:07:45;98625.03;;;32.54;33.90
13241;BME280;6687;47.790;7.322;2023-05-22T10:10:13;98631.38;;;32.43;38.18
13241;BME280;6687;47.790;7.322;2023-05-22T10:12:46;98624.38;;;32.89;37.88
13241;BME280;6687;47.790;7.322;2023-05-22T10:15:16;98637.78;;;32.22;38.52
13241;BME280;6687;47.790;7.322;2023-05-22T10:17:43;98627.00;;;32.71;38.09
13241;BME280;6687;47.790;7.322;2023-05-22T10:20:11;98635.16;;;32.79;37.18
13241;BME280;6687;47.790;7.322;2023-05-22T10:22:39;98621.66;;;33.26;37.57
13241;BME280;6687;47.790;7.322;2023-05-22T10:25:08;98620.31;;;33.13;37.96
13241;BME280;6687;47.790;7.322;2023-05-22T10:27:35;98624.50;;;33.25;37.85
13241;BME280;6687;47.790;7.322;2023-05-22T10:30:12;98618.06;;;33.63;34.68
13241;BME280;6687;47.790;7.322;2023-05-22T10:32:45;98619.03;;;33.62;37.39
13241;BME280;6687;47.790;7.322;2023-05-22T10:35:17;98620.69;;;33.45;37.53
13241;BME280;6687;47.790;7.322;2023-05-22T10:37:48;98614.69;;;32.68;37.77
13241;BME280;6687;47.790;7.322;2023-05-22T10:40:21;98619.09;;;33.53;36.71
13241;BME280;6687;47.790;7.322;2023-05-22T10:42:56;98611.09;;;33.88;31.30
13241;BME280;6687;47.790;7.322;2023-05-22T10:45:26;98618.06;;;33.99;36.18
13241;BME280;6687;47.790;7.322;2023-05-22T10:48:04;98601.78;;;34.01;36.36
13241;BME280;6687;47.790;7.322;2023-05-22T10:50:31;98598.25;;;33.64;31.21
13241;BME280;6687;47.790;7.322;2023-05-22T10:53:17;98600.47;;;34.05;36.31
13241;BME280;6687;47.790;7.322;2023-05-22T10:55:46;98594.25;;;33.86;36.35
13241;BME280;6687;47.790;7.322;2023-05-22T10:58:13;98586.31;;;34.03;32.11
13241;BME280;6687;47.790;7.322;2023-05-22T11:00:41;98596.97;;;34.31;31.66
13241;BME280;6687;47.790;7.322;2023-05-22T11:03:08;98587.69;;;34.77;32.70
13241;BME280;6687;47.790;7.322;2023-05-22T11:05:36;98592.88;;;34.71;35.42
13241;BME280;6687;47.790;7.322;2023-05-22T11:08:35;98583.78;;;34.45;34.83
13241;BME280;6687;47.790;7.322;2023-05-22T11:11:11;98577.19;;;35.00;31.54
13241;BME280;6687;47.790;7.322;2023-05-22T11:13:38;98575.78;;;34.88;33.95
13241;BME280;6687;47.790;7.322;2023-05-22T11:16:07;98574.44;;;34.84;27.69
13241;BME280;6687;47.790;7.322;2023-05-22T11:18:35;98579.19;;;34.98;27.33
13241;BME280;6687;47.790;7.322;2023-05-22T11:21:02;98567.03;;;34.86;33.30
13241;BME280;6687;47.790;7.322;2023-05-22T11:23:33;98571.56;;;34.59;34.90
13241;BME280;6687;47.790;7.322;2023-05-22T11:26:18;98577.59;;;34.53;28.79
13241;BME280;6687;47.790;7.322;2023-05-22T11:28:48;98568.91;;;35.36;27.51
13241;BME280;6687;47.790;7.322;2023-05-22T11:31:18;98578.03;;;35.60;30.11
13241;BME280;6687;47.790;7.322;2023-05-22T11:33:45;98578.59;;;35.72;32.31
13241;BME280;6687;47.790;7.322;2023-05-22T11:36:12;98579.81;;;35.27;33.93
13241;BME280;6687;47.790;7.322;2023-05-22T11:38:39;98583.88;;;35.39;28.05
13241;BME280;6687;47.790;7.322;2023-05-22T11:41:08;98579.59;;;36.12;26.67
13241;BME280;6687;47.790;7.322;2023-05-22T11:43:35;98576.72;;;36.13;25.56
13241;BME280;6687;47.790;7.322;2023-05-22T11:46:05;98580.75;;;36.42;30.81
13241;BME280;6687;47.790;7.322;2023-05-22T11:48:33;98585.50;;;36.23;32.92
13241;BME280;6687;47.790;7.322;2023-05-22T11:51:01;98579.03;;;36.57;32.26
13241;BME280;6687;47.790;7.322;2023-05-22T11:53:28;98574.88;;;36.86;32.47
13241;BME280;6687;47.790;7.322;2023-05-22T11:56:00;98575.22;;;36.91;31.78
13241;BME280;6687;47.790;7.322;2023-05-22T11:58:27;98572.47;;;36.99;29.13
13241;BME280;6687;47.790;7.322;2023-05-22T12:00:57;98578.28;;;36.80;25.54
13241;BME280;6687;47.790;7.322;2023-05-22T12:03:23;98565.13;;;37.48;25.37
13241;BME280;6687;47.790;7.322;2023-05-22T12:05:52;98575.50;;;37.13;24.91
13241;BME280;6687;47.790;7.322;2023-05-22T12:08:19;98575.81;;;37.41;30.46
13241;BME280;6687;47.790;7.322;2023-05-22T12:10:47;98575.94;;;37.48;30.03
13241;BME280;6687;47.790;7.322;2023-05-22T12:13:21;98575.22;;;38.00;26.23
13241;BME280;6687;47.790;7.322;2023-05-22T12:15:48;98569.94;;;37.84;30.05
13241;BME280;6687;47.790;7.322;2023-05-22T12:18:17;98566.81;;;38.48;27.37
13241;BME280;6687;47.790;7.322;2023-05-22T12:20:43;98566.16;;;38.31;22.21
13241;BME280;6687;47.790;7.322;2023-05-22T12:23:20;98563.94;;;38.49;22.90
13241;BME280;6687;47.790;7.322;2023-05-22T12:25:47;98562.03;;;39.24;24.61
13241;BME280;6687;47.790;7.322;2023-05-22T12:28:21;98561.63;;;39.27;21.44
13241;BME280;6687;47.790;7.322;2023-05-22T12:30:51;98561.63;;;38.76;23.29
13241;BME280;6687;47.790;7.322;2023-05-22T12:33:18;98560.22;;;38.80;21.74
13241;BME280;6687;47.790;7.322;2023-05-22T12:35:48;98553.06;;;39.24;22.67
13241;BME280;6687;47.790;7.322;2023-05-22T12:38:19;98552.47;;;38.77;22.00
13241;BME280;6687;47.790;7.322;2023-05-22T12:40:46;98556.66;;;39.31;21.30
13241;BME280;6687;47.790;7.322;2023-05-22T12:43:13;98541.63;;;39.28;21.01
13241;BME280;6687;47.790;7.322;2023-05-22T12:45:40;98540.50;;;38.71;21.42
13241;BME280;6687;47.790;7.322;2023-05-22T12:48:07;98546.56;;;38.73;21.56
13241;BME280;6687;47.790;7.322;2023-05-22T12:50:34;98544.25;;;38.55;22.22
13241;BME280;6687;47.790;7.322;2023-05-22T12:53:01;98542.06;;;37.60;22.43
13241;BME280;6687;47.790;7.322;2023-05-22T12:55:29;98554.59;;;37.99;22.51
13241;BME280;6687;47.790;7.322;2023-05-22T12:57:56;98550.75;;;36.12;24.64
13241;BME280;6687;47.790;7.322;2023-05-22T13:00:23;98545.75;;;36.73;24.13
13241;BME280;6687;47.790;7.322;2023-05-22T13:02:50;98546.50;;;36.90;24.62
13241;BME280;6687;47.790;7.322;2023-05-22T13:05:17;98539.28;;;36.82;23.73
13241;BME280;6687;47.790;7.322;2023-05-22T13:07:43;98535.81;;;36.57;24.57
13241;BME280;6687;47.790;7.322;2023-05-22T13:10:10;98532.72;;;36.85;23.81
13241;BME280;6687;47.790;7.322;2023-05-22T13:12:39;98535.75;;;35.85;25.24
13241;BME280;6687;47.790;7.322;2023-05-22T13:15:07;98536.44;;;35.87;25.15
13241;BME280;6687;47.790;7.322;2023-05-22T13:17:35;98529.53;;;35.93;25.32
13241;BME280;6687;47.790;7.322;2023-05-22T13:20:02;98530.16;;;35.37;26.30
13241;BME280;6687;47.790;7.322;2023-05-22T13:22:29;98523.91;;;35.20;25.49
13241;BME280;6687;47.790;7.322;2023-05-22T13:24:56;98512.88;;;37.01;28.15
13241;BME280;6687;47.790;7.322;2023-05-22T13:27:23;98510.63;;;37.05;25.25
13241;BME280;6687;47.790;7.322;2023-05-22T13:29:51;98513.78;;;37.71;25.16
13241;BME280;6687;47.790;7.322;2023-05-22T13:32:18;98507.59;;;37.39;23.06
13241;BME280;6687;47.790;7.322;2023-05-22T13:34:45;98519.59;;;37.83;23.91
13241;BME280;6687;47.790;7.322;2023-05-22T13:37:11;98511.34;;;36.59;24.17
13241;BME280;6687;47.790;7.322;2023-05-22T13:39:38;98519.56;;;37.36;23.67
13241;BME280;6687;47.790;7.322;2023-05-22T13:42:05;98527.81;;;35.51;25.48
13241;BME280;6687;47.790;7.322;2023-05-22T13:44:32;98518.28;;;36.93;26.33
13241;BME280;6687;47.790;7.322;2023-05-22T13:47:00;98508.34;;;36.93;26.55
13241;BME280;6687;47.790;7.322;2023-05-22T13:49:27;98507.06;;;36.81;24.38
13241;BME280;6687;47.790;7.322;2023-05-22T13:51:54;98512.22;;;36.43;24.88
13241;BME280;6687;47.790;7.322;2023-05-22T13:54:21;98514.47;;;36.39;25.33
13241;BME280;6687;47.790;7.322;2023-05-22T13:56:48;98513.19;;;36.58;25.58
13241;BME280;6687;47.790;7.322;2023-05-22T13:59:14;98513.34;;;35.84;25.97
13241;BME280;6687;47.790;7.322;2023-05-22T14:01:41;98505.06;;;36.02;25.28
13241;BME280;6687;47.790;7.322;2023-05-22T14:04:09;98503.69;;;36.31;25.31
13241;BME280;6687;47.790;7.322;2023-05-22T14:06:36;98503.47;;;36.41;25.51
13241;BME280;6687;47.790;7.322;2023-05-22T14:09:03;98504.56;;;36.23;25.38
13241;BME280;6687;47.790;7.322;2023-05-22T14:11:31;98503.59;;;35.83;25.76
13241;BME280;6687;47.790;7.322;2023-05-22T14:13:58;98504.09;;;36.68;29.41
13241;BME280;6687;47.790;7.322;2023-05-22T14:16:24;98503.38;;;34.69;26.85
13241;BME280;6687;47.790;7.322;2023-05-22T14:18:51;98500.09;;;35.08;26.47
13241;BME280;6687;47.790;7.322;2023-05-22T14:21:19;98498.22;;;36.95;25.55
13241;BME280;6687;47.790;7.322;2023-05-22T14:23:46;98492.94;;;35.98;25.60
13241;BME280;6687;47.790;7.322;2023-05-22T14:26:13;98490.56;;;36.12;25.21
13241;BME280;6687;47.790;7.322;2023-05-22T14:28:39;98492.63;;;36.97;24.97
13241;BME280;6687;47.790;7.322;2023-05-22T14:31:06;98493.44;;;36.02;25.29
13241;BME280;6687;47.790;7.322;2023-05-22T14:33:33;98499.69;;;36.58;25.69
13241;BME280;6687;47.790;7.322;2023-05-22T14:36:00;98498.44;;;36.38;26.73
13241;BME280;6687;47.790;7.322;2023-05-22T14:38:30;98499.78;;;36.42;25.27
13241;BME280;6687;47.790;7.322;2023-05-22T14:40:57;98504.25;;;35.94;26.63
13241;BME280;6687;47.790;7.322;2023-05-22T14:43:24;98508.44;;;36.77;27.66
13241;BME280;6687;47.790;7.322;2023-05-22T14:45:51;98509.09;;;36.79;25.43
13241;BME280;6687;47.790;7.322;2023-05-22T14:48:18;98512.44;;;36.89;25.98
13241;BME280;6687;47.790;7.322;2023-05-22T14:50:50;98514.84;;;36.12;25.63
13241;BME280;6687;47.790;7.322;2023-05-22T14:53:16;98519.97;;;35.06;26.08
13241;BME280;6687;47.790;7.322;2023-05-22T14:55:45;98510.44;;;36.11;25.05
13241;BME280;6687;47.790;7.322;2023-05-22T14:58:12;98510.56;;;36.42;25.86
13241;BME280;6687;47.790;7.322;2023-05-22T15:00:39;98518.44;;;37.54;25.09
13241;BME280;6687;47.790;7.322;2023-05-22T15:03:06;98521.09;;;37.62;23.89
13241;BME280;6687;47.790;7.322;2023-05-22T15:05:33;98519.25;;;36.77;24.61
13241;BME280;6687;47.790;7.322;2023-05-22T15:08:00;98520.44;;;37.60;24.24
13241;BME280;6687;47.790;7.322;2023-05-22T15:10:27;98512.72;;;37.95;26.30
13241;BME280;6687;47.790;7.322;2023-05-22T15:12:55;98509.78;;;37.04;24.42
13241;BME280;6687;47.790;7.322;2023-05-22T15:15:22;98507.28;;;35.91;25.21
13241;BME280;6687;47.790;7.322;2023-05-22T15:17:48;98501.44;;;36.43;25.47
13241;BME280;6687;47.790;7.322;2023-05-22T15:20:15;98494.47;;;37.51;26.08
13241;BME280;6687;47.790;7.322;2023-05-22T15:22:42;98484.97;;;37.55;24.42
13241;BME280;6687;47.790;7.322;2023-05-22T15:25:10;98488.97;;;37.67;26.42
13241;BME280;6687;47.790;7.322;2023-05-22T15:27:39;98486.97;;;37.99;26.54
13241;BME280;6687;47.790;7.322;2023-05-22T15:30:08;98497.66;;;35.39;25.13
13241;BME280;6687;47.790;7.322;2023-05-22T15:32:36;98487.91;;;35.95;25.72
13241;BME280;6687;47.790;7.322;2023-05-22T15:35:04;98486.38;;;35.84;26.13
13241;BME280;6687;47.790;7.322;2023-05-22T15:37:31;98489.00;;;35.02;26.28
13241;BME280;6687;47.790;7.322;2023-05-22T15:39:58;98488.06;;;34.69;26.92
13241;BME280;6687;47.790;7.322;2023-05-22T15:42:25;98487.25;;;34.77;26.35
13241;BME280;6687;47.790;7.322;2023-05-22T15:44:52;98491.94;;;32.98;28.99
13241;BME280;6687;47.790;7.322;2023-05-22T15:47:20;98491.00;;;34.58;28.15
13241;BME280;6687;47.790;7.322;2023-05-22T15:49:47;98485.38;;;34.35;29.49
13241;BME280;6687;47.790;7.322;2023-05-22T15:52:13;98484.69;;;33.44;27.89
13241;BME280;6687;47.790;7.322;2023-05-22T15:54:40;98486.09;;;34.53;29.24
13241;BME280;6687;47.790;7.322;2023-05-22T15:57:07;98490.53;;;34.62;26.80
13241;BME280;6687;47.790;7.322;2023-05-22T15:59:33;98499.56;;;33.57;27.61
13241;BME280;6687;47.790;7.322;2023-05-22T16:02:00;98496.38;;;33.97;28.13
13241;BME280;6687;47.790;7.322;2023-05-22T16:04:28;98490.47;;;32.86;28.72
13241;BME280;6687;47.790;7.322;2023-05-22T16:06:55;98492.59;;;33.46;28.27
13241;BME280;6687;47.790;7.322;2023-05-22T16:09:22;98483.56;;;33.29;29.08
13241;BME280;6687;47.790;7.322;2023-05-22T16:11:48;98475.75;;;32.25;29.10
13241;BME280;6687;47.790;7.322;2023-05-22T16:14:15;98476.03;;;31.65;29.73
13241;BME280;6687;47.790;7.322;2023-05-22T16:16:42;98474.78;;;31.30;31.24
13241;BME280;6687;47.790;7.322;2023-05-22T16:19:09;98473.47;;;31.73;29.96
13241;BME280;6687;47.790;7.322;2023-05-22T16:21:37;98477.97;;;31.82;30.25
13241;BME280;6687;47.790;7.322;2023-05-22T16:24:04;98495.31;;;31.39;30.88
13241;BME280;6687;47.790;7.322;2023-05-22T16:26:31;98507.78;;;29.98;35.13
13241;BME280;6687;47.790;7.322;2023-05-22T16:28:58;98518.75;;;29.62;37.59
13241;BME280;6687;47.790;7.322;2023-05-22T16:31:24;98512.81;;;28.83;39.66
13241;BME280;6687;47.790;7.322;2023-05-22T16:33:51;98526.44;;;27.99;42.04
13241;BME280;6687;47.790;7.322;2023-05-22T16:36:18;98547.47;;;27.31;42.96
13241;BME280;6687;47.790;7.322;2023-05-22T16:38:46;98552.94;;;27.30;47.13
13241;BME280;6687;47.790;7.322;2023-05-22T16:41:13;98551.81;;;26.95;47.78
13241;BME280;6687;47.790;7.322;2023-05-22T16:43:40;98563.47;;;26.05;47.69
13241;BME280;6687;47.790;7.322;2023-05-22T16:46:06;98566.91;;;25.79;51.30
13241;BME280;6687;47.790;7.322;2023-05-22T16:48:33;98560.63;;;25.40;52.49
13241;BME280;6687;47.790;7.322;2023-05-22T16:51:00;98569.00;;;24.64;58.94
13241;BME280;6687;47.790;7.322;2023-05-22T16:53:27;98589.97;;;23.00;68.13
13241;BME280;6687;47.790;7.322;2023-05-22T16:55:55;98601.56;;;22.64;75.43
13241;BME280;6687;47.790;7.322;2023-05-22T16:58:24;98600.22;;;23.06;74.25
13241;BME280;6687;47.790;7.322;2023-05-22T17:00:50;98615.16;;;22.90;76.65
13241;BME280;6687;47.790;7.322;2023-05-22T17:03:17;98615.78;;;22.61;75.82
13241;BME280;6687;47.790;7.322;2023-05-22T17:05:44;98614.38;;;22.88;77.36
13241;BME280;6687;47.790;7.322;2023-05-22T17:08:11;98622.25;;;22.56;78.47
13241;BME280;6687;47.790;7.322;2023-05-22T17:10:38;98616.56;;;23.60;76.06
13241;BME280;6687;47.790;7.322;2023-05-22T17:13:07;98611.06;;;24.26;69.96
13241;BME280;6687;47.790;7.322;2023-05-22T17:15:36;98609.50;;;24.66;65.50
13241;BME280;6687;47.790;7.322;2023-05-22T17:18:03;98602.50;;;24.79;64.05
13241;BME280;6687;47.790;7.322;2023-05-22T17:20:29;98609.38;;;22.99;78.71
13241;BME280;6687;47.790;7.322;2023-05-22T17:22:58;98617.25;;;23.80;74.21
13241;BME280;6687;47.790;7.322;2023-05-22T17:25:25;98605.38;;;24.32;67.88
13241;BME280;6687;47.790;7.322;2023-05-22T17:27:51;98601.31;;;24.40;64.56
13241;BME280;6687;47.790;7.322;2023-05-22T17:30:19;98600.97;;;24.61;63.16
13241;BME280;6687;47.790;7.322;2023-05-22T17:32:46;98596.81;;;24.57;62.85
13241;BME280;6687;47.790;7.322;2023-05-22T17:35:14;98596.59;;;24.31;65.79
13241;BME280;6687;47.790;7.322;2023-05-22T17:37:41;98596.00;;;24.26;66.05
13241;BME280;6687;47.790;7.322;2023-05-22T17:40:08;98595.69;;;24.02;70.79
13241;BME280;6687;47.790;7.322;2023-05-22T17:42:35;98598.41;;;23.54;80.99
13241;BME280;6687;47.790;7.322;2023-05-22T17:45:02;98611.03;;;23.95;76.60
13241;BME280;6687;47.790;7.322;2023-05-22T17:47:30;98607.84;;;22.95;82.61
13241;BME280;6687;47.790;7.322;2023-05-22T17:49:57;98611.44;;;23.57;77.67
13241;BME280;6687;47.790;7.322;2023-05-22T17:52:23;98598.66;;;23.66;73.76
13241;BME280;6687;47.790;7.322;2023-05-22T17:54:51;98591.97;;;23.74;67.84
13241;BME280;6687;47.790;7.322;2023-05-22T17:57:20;98595.72;;;23.86;66.14
13241;BME280;6687;47.790;7.322;2023-05-22T17:59:46;98613.91;;;22.97;79.67
13241;BME280;6687;47.790;7.322;2023-05-22T18:02:13;98603.03;;;22.70;85.81
13241;BME280;6687;47.790;7.322;2023-05-22T18:04:41;98604.59;;;22.40;88.72
13241;BME280;6687;47.790;7.322;2023-05-22T18:07:08;98612.88;;;22.50;88.72
13241;BME280;6687;47.790;7.322;2023-05-22T18:09:35;98607.31;;;22.72;87.61
13241;BME280;6687;47.790;7.322;2023-05-22T18:12:02;98606.78;;;22.66;88.22
13241;BME280;6687;47.790;7.322;2023-05-22T18:14:28;98610.81;;;22.73;89.25
13241;BME280;6687;47.790;7.322;2023-05-22T18:16:55;98599.75;;;22.82;89.88
13241;BME280;6687;47.790;7.322;2023-05-22T18:19:22;98602.19;;;22.69;90.62
13241;BME280;6687;47.790;7.322;2023-05-22T18:21:50;98603.66;;;22.24;92.97
13241;BME280;6687;47.790;7.322;2023-05-22T18:24:20;98599.75;;;22.14;93.63
13241;BME280;6687;47.790;7.322;2023-05-22T18:26:47;98600.63;;;21.79;95.41
13241;BME280;6687;47.790;7.322;2023-05-22T18:29:14;98597.81;;;22.00;94.88
13241;BME280;6687;47.790;7.322;2023-05-22T18:31:41;98589.97;;;22.16;95.56
13241;BME280;6687;47.790;7.322;2023-05-22T18:34:08;98594.97;;;22.04;95.31
13241;BME280;6687;47.790;7.322;2023-05-22T18:36:34;98599.44;;;21.68;95.41